Time;durP1;ratioP1;P1;durP2;ratioP2;P2;SDS_P1;SDS_P2;PMS_P1;PMS_P2;Temp;Humidity;BMP_temperature;BMP_pressure;BME280_temperature;BME280_humidity;BME280_pressure;Samples;Min_cycle;Max_cycle;Signal;HPM_P1;HPM_P2
2022/03/18 00:13:23;;;;;;;9.82;6.10;;;11.40;57.40;;;;;;2190912;58;21032;-66
2022/03/18 00:15:56;;;;;;;11.57;6.70;;;11.40;57.70;;;;;;2188345;58;21035;-65
2022/03/18 00:21:59;;;;;;;;;;;;;;;;;;;;;
2022/03/18 00:24:32;;;;;;;10.63;6.70;;;11.40;57.80;;;;;;2185997;58;21037;-66
2022/03/18 00:27:42;;;;;;;;;;;;;;;;;;;;;
2022/03/18 00:30:10;;;;;;;10.07;6.07;;;11.30;58.10;;;;;;2209309;56;20945;-66
2022/03/18 00:32:40;;;;;;;11.23;7.00;;;11.40;58.10;;;;;;2208094;56;21058;-65
2022/03/18 00:35:17;;;;;;;10.25;6.97;;;11.40;58.20;;;;;;2205191;57;21120;-65
2022/03/18 00:37:52;;;;;;;9.13;6.12;;;11.30;58.10;;;;;;2228669;57;21025;-65
2022/03/18 00:40:50;;;;;;;10.10;6.65;;;11.40;58.20;;;;;;2211045;57;21628;-65
2022/03/18 00:43:26;;;;;;;10.73;6.50;;;11.40;58.40;;;;;;2192046;58;21001;-65
2022/03/18 00:45:56;;;;;;;9.98;6.57;;;11.40;58.20;;;;;;2205254;57;20944;-66
2022/03/18 00:58:17;;;;;;;9.57;5.87;;;11.40;58.20;;;;;;2187660;58;20973;-66
2022/03/18 01:00:51;;;;;;;9.82;6.72;;;11.40;58.10;;;;;;2207845;57;20993;-66
2022/03/18 01:03:44;;;;;;;9.30;6.12;;;11.40;58.20;;;;;;2270692;57;21040;-66
2022/03/18 01:06:15;;;;;;;9.52;6.18;;;11.40;58.40;;;;;;2191903;58;21005;-66
2022/03/18 01:08:54;;;;;;;;;;;11.40;58.10;;;;;;2261490;57;21089;-66
2022/03/18 01:11:21;;;;;;;8.95;5.12;;;11.40;58.40;;;;;;2221960;56;20154;-66
2022/03/18 01:13:50;;;;;;;9.93;5.65;;;11.40;58.00;;;;;;2215753;56;20980;-66
2022/03/18 01:16:50;;;;;;;10.82;6.05;;;11.40;58.00;;;;;;2272566;56;21887;-65
2022/03/18 01:19:18;;;;;;;8.77;5.43;;;11.40;58.20;;;;;;2175523;57;20995;-65
2022/03/18 01:21:55;;;;;;;9.60;6.15;;;11.40;58.00;;;;;;2182777;58;21131;-65
2022/03/18 01:25:36;;;;;;;9.63;5.37;;;11.40;58.00;;;;;;2169250;57;20977;-66
2022/03/18 01:28:53;;;;;;;7.28;4.95;;;11.40;57.90;;;;;;2194784;57;21039;-66
2022/03/18 01:31:35;;;;;;;7.80;4.85;;;11.40;57.90;;;;;;2233277;57;21790;-66
2022/03/18 01:34:17;;;;;;;9.18;4.97;;;11.30;57.80;;;;;;2187493;58;21033;-65
2022/03/18 01:36:44;;;;;;;9.88;5.07;;;11.40;57.90;;;;;;2204777;57;20997;-65
2022/03/18 01:39:12;;;;;;;8.30;4.87;;;11.30;57.80;;;;;;2180462;58;20972;-65
2022/03/18 01:41:58;;;;;;;;;;;;;;;;;;;;;
2022/03/18 01:44:26;;;;;;;7.95;5.25;;;11.30;57.80;;;;;;2186136;57;21001;-65
2022/03/18 01:47:10;;;;;;;7.72;4.47;;;11.30;57.80;;;;;;2203039;58;21065;-66
2022/03/18 01:49:44;;;;;;;6.75;3.95;;;11.30;57.80;;;;;;2204411;58;21017;-66
2022/03/18 01:52:22;;;;;;;;;;;11.30;57.80;;;;;;2190420;58;21080;-66
2022/03/18 01:54:53;;;;;;;7.75;3.70;;;11.30;58.00;;;;;;2194476;57;20116;-66
2022/03/18 01:57:32;;;;;;;5.93;3.33;;;11.30;57.60;;;;;;2204777;57;21115;-66
2022/03/18 02:00:05;;;;;;;5.55;3.78;;;11.20;57.50;;;;;;2196075;57;21568;-66
2022/03/18 02:02:45;;;;;;;7.93;3.67;;;11.20;57.40;;;;;;2137440;59;21087;-66
2022/03/18 02:05:33;;;;;;;8.85;3.08;;;11.20;57.50;;;;;;2169215;61;21014;-65
2022/03/18 02:08:09;;;;;;;6.70;3.30;;;11.20;57.50;;;;;;2208908;56;20981;-66
2022/03/18 02:10:41;;;;;;;8.38;3.90;;;11.10;57.40;;;;;;2246961;56;21062;-65
2022/03/18 02:13:21;;;;;;;6.47;3.00;;;11.20;57.40;;;;;;2224148;57;20951;-66
2022/03/18 02:20:08;;;;;;;5.20;2.78;;;11.10;57.40;;;;;;2421480;57;21008;-66
2022/03/18 02:22:56;;;;;;;6.47;2.90;;;11.10;57.30;;;;;;2192121;58;21110;-66
2022/03/18 02:25:28;;;;;;;5.32;2.90;;;11.10;57.30;;;;;;2204341;57;21023;-66
2022/03/18 02:28:01;;;;;;;6.30;3.20;;;11.00;57.20;;;;;;2204651;57;21025;-65
2022/03/18 02:35:01;;;;;;;5.82;2.67;;;11.00;57.30;;;;;;2225981;57;21366;-65
2022/03/18 03:09:57;;;;;;;4.53;2.22;;;11.00;57.30;;;;;;2163197;59;21072;-65
2022/03/18 04:12:49;;;;;;;6.87;3.45;;;10.60;56.80;;;;;;2247559;55;21018;-65
2022/03/18 04:15:21;;;;;;;7.72;3.65;;;10.60;56.80;;;;;;2212847;58;20992;-66
2022/03/18 04:24:30;;;;;;;4.68;2.33;;;10.60;56.80;;;;;;2328223;58;21106;-65
2022/03/18 04:27:25;;;;;;;5.57;3.08;;;10.50;56.60;;;;;;2187989;57;20987;-65
2022/03/18 04:29:53;;;;;;;6.97;3.25;;;10.50;56.60;;;;;;2190458;58;21032;-65
2022/03/18 04:33:15;;;;;;;5.50;3.08;;;10.50;56.60;;;;;;2209712;56;21444;-66
2022/03/18 04:35:55;;;;;;;6.40;2.55;;;10.50;56.70;;;;;;2189487;57;21545;-65
2022/03/18 04:39:00;;;;;;;;;;;;;;;;;;;;;
2022/03/18 04:41:27;;;;;;;6.93;3.80;;;10.50;56.70;;;;;;2187980;56;21010;-66
2022/03/18 04:43:58;;;;;;;5.70;3.20;;;10.50;56.70;;;;;;2229906;56;20998;-66
2022/03/18 04:46:28;;;;;;;6.10;2.65;;;10.50;56.80;;;;;;2214515;57;20979;-65
2022/03/18 04:49:21;;;;;;;5.75;2.92;;;10.50;56.80;;;;;;2189035;58;20996;-66
2022/03/18 04:51:59;;;;;;;5.95;3.53;;;10.50;56.80;;;;;;2187086;57;21094;-65
2022/03/18 04:54:34;;;;;;;6.68;3.22;;;10.50;56.80;;;;;;2322469;56;21085;-66
2022/03/18 04:57:20;;;;;;;8.73;3.33;;;10.50;56.90;;;;;;2213022;57;22353;-66
2022/03/18 04:59:52;;;;;;;7.03;3.20;;;10.50;57.50;;;;;;2229171;57;20952;-65
2022/03/18 05:02:22;;;;;;;6.20;3.05;;;10.50;56.80;;;;;;2226234;57;21003;-65
2022/03/18 05:05:02;;;;;;;;;;;;;;;;;;;;;
2022/03/18 05:08:34;;;;;;;4.25;2.80;;;10.50;56.80;;;;;;2173391;57;21535;-65
2022/03/18 05:11:02;;;;;;;6.15;3.12;;;10.50;56.80;;;;;;2215224;57;21026;-65
2022/03/18 05:13:31;;;;;;;5.12;3.15;;;10.50;56.70;;;;;;2184968;58;21032;-65
2022/03/18 05:15:58;;;;;;;6.65;3.45;;;10.50;56.80;;;;;;2207608;57;21034;-65
2022/03/18 05:21:48;;;;;;;7.07;3.85;;;10.40;56.70;;;;;;2238536;57;21027;-66
2022/03/18 05:24:42;;;;;;;;;;;;;;;;;;;;;
2022/03/18 05:27:12;;;;;;;5.82;3.00;;;10.50;56.70;;;;;;2241537;57;21707;-65
2022/03/18 05:30:28;;;;;;;6.70;3.30;;;10.40;56.60;;;;;;2164624;58;21543;-65
2022/03/18 05:33:28;;;;;;;6.15;3.15;;;10.40;56.70;;;;;;2208722;57;20977;-65
2022/03/18 05:35:57;;;;;;;5.43;2.92;;;10.40;56.70;;;;;;2217333;57;21031;-66
2022/03/18 05:38:46;;;;;;;7.45;3.53;;;10.40;56.60;;;;;;2223328;57;21513;-66
2022/03/18 05:48:08;;;;;;;7.87;3.87;;;10.40;56.60;;;;;;2217856;58;21552;-66
2022/03/18 05:50:56;;;;;;;6.97;3.33;;;10.40;56.70;;;;;;2210685;57;21017;-66
2022/03/18 05:57:05;;;;;;;5.28;3.05;;;10.40;56.60;;;;;;2239141;57;21013;-65
2022/03/18 06:02:42;;;;;;;5.43;2.78;;;10.30;56.60;;;;;;2205218;57;21052;-66
2022/03/18 06:06:09;;;;;;;6.30;2.72;;;10.40;56.80;;;;;;2212789;57;21559;-65
2022/03/18 06:16:01;;;;;;;6.53;2.95;;;10.40;56.80;;;;;;2268482;56;20980;-65
2022/03/18 06:18:41;;;;;;;7.10;2.83;;;10.40;56.70;;;;;;2199097;57;21063;-65
2022/03/18 06:25:24;;;;;;;4.60;2.62;;;10.40;56.80;;;;;;2203788;57;21073;-66
2022/03/18 06:27:59;;;;;;;6.40;2.85;;;10.40;57.00;;;;;;2234432;57;21017;-66
2022/03/18 06:33:44;;;;;;;7.22;2.90;;;10.30;56.70;;;;;;2320854;57;21066;-65
2022/03/18 06:40:24;;;;;;;5.12;2.85;;;10.40;56.70;;;;;;2368259;57;21539;-66
2022/03/18 06:47:28;;;;;;;6.87;3.42;;;10.40;56.80;;;;;;2383897;57;21532;-66
2022/03/18 06:53:58;;;;;;;5.43;2.90;;;10.40;56.80;;;;;;2333986;57;21165;-66
2022/03/18 06:58:00;;;;;;;6.10;3.35;;;10.40;56.70;;;;;;2202019;58;21028;-66
2022/03/18 07:11:14;;;;;;;5.65;2.97;;;10.40;56.80;;;;;;2338497;57;20987;-66
2022/03/18 07:13:57;;;;;;;7.00;2.63;;;10.40;56.90;;;;;;2198900;57;21084;-66
2022/03/18 07:27:09;;;;;;;7.37;3.40;;;10.50;57.00;;;;;;2195779;57;20985;-66
2022/03/18 07:29:53;;;;;;;5.65;3.50;;;10.60;57.10;;;;;;2193283;58;20969;-66
2022/03/18 07:32:38;;;;;;;6.95;3.58;;;10.60;57.10;;;;;;2189780;57;20989;-66
2022/03/18 07:35:10;;;;;;;9.88;3.90;;;10.60;57.00;;;;;;2204233;57;21003;-66
2022/03/18 07:38:20;;;;;;;8.00;3.10;;;10.70;57.10;;;;;;2399545;57;20999;-65
2022/03/18 07:45:04;;;;;;;5.93;2.97;;;10.80;57.20;;;;;;2276774;57;20109;-66
2022/03/18 07:47:31;;;;;;;6.65;3.17;;;10.80;57.10;;;;;;2194890;57;21060;-66
2022/03/18 07:49:58;;;;;;;7.28;3.50;;;10.90;57.20;;;;;;2238409;57;21070;-65
2022/03/18 07:55:37;;;;;;;7.28;3.78;;;10.90;57.20;;;;;;2242169;57;21010;-65
2022/03/18 07:58:07;;;;;;;6.32;3.10;;;10.90;57.30;;;;;;2194677;57;21153;-65
2022/03/18 08:00:45;;;;;;;7.03;3.75;;;11.10;57.80;;;;;;2188247;57;21023;-67
2022/03/18 08:03:21;;;;;;;6.70;3.67;;;11.20;57.30;;;;;;2200409;57;21002;-66
2022/03/18 08:05:57;;;;;;;8.65;4.65;;;11.20;57.30;;;;;;2202560;57;21022;-66
2022/03/18 08:08:34;;;;;;;;;;;;;;;;;;;;;
2022/03/18 08:11:03;;;;;;;7.45;3.62;;;11.30;57.40;;;;;;2197675;57;21066;-65
2022/03/18 08:13:54;;;;;;;8.32;4.40;;;11.40;57.40;;;;;;2194436;57;21014;-66
2022/03/18 08:16:25;;;;;;;8.10;4.68;;;11.40;57.30;;;;;;2204826;58;21047;-67
2022/03/18 08:18:57;;;;;;;7.68;3.70;;;11.50;57.20;;;;;;2179316;58;21030;-66
2022/03/18 08:21:24;;;;;;;7.40;4.30;;;11.60;57.20;;;;;;2210251;57;21015;-66
2022/03/18 08:49:57;;;;;;;;;;;;;;;;;;;;;
2022/03/18 08:52:43;;;;;;;8.25;3.60;;;12.20;57.10;;;;;;2372247;56;21007;-67
2022/03/18 08:55:33;;;;;;;10.57;5.50;;;12.30;57.30;;;;;;2291084;56;22231;-67
2022/03/18 08:58:07;;;;;;;10.18;4.62;;;12.40;57.40;;;;;;2205348;57;20997;-67
2022/03/18 09:01:06;;;;;;;12.00;5.62;;;12.50;57.50;;;;;;2182889;58;21049;-66
2022/03/18 09:04:24;;;;;;;7.50;4.80;;;12.60;57.40;;;;;;2155648;58;21040;-66
2022/03/18 09:07:12;;;;;;;12.48;5.57;;;12.70;57.00;;;;;;2181824;58;21005;-66
2022/03/18 09:09:51;;;;;;;10.27;6.03;;;12.80;56.80;;;;;;2177783;57;21052;-67
2022/03/18 09:12:44;;;;;;;11.57;5.72;;;12.80;56.60;;;;;;2191741;57;20998;-66
2022/03/18 09:15:52;;;;;;;9.65;5.90;;;12.90;56.70;;;;;;2134091;59;21028;-66
2022/03/18 09:18:38;;;;;;;8.02;5.22;;;13.00;56.60;;;;;;2187251;57;21044;-65
2022/03/18 09:25:00;;;;;;;8.68;4.97;;;13.00;56.10;;;;;;2248466;57;21033;-67
2022/03/18 09:28:07;;;;;;;;;;;;;;;;;;;;;
2022/03/18 09:30:48;;;;;;;11.10;5.90;;;13.20;56.40;;;;;;2172603;58;21034;-65
2022/03/18 10:09:17;;;;;;;12.52;6.65;;;15.10;56.70;;;;;;2408406;52;20982;-67
2022/03/18 10:11:47;;;;;;;10.75;6.03;;;15.20;56.30;;;;;;2327838;53;20959;-67
2022/03/18 10:14:25;;;;;;;10.13;6.32;;;15.40;56.50;;;;;;2355993;53;21033;-67
2022/03/18 10:17:00;;;;;;;12.90;7.07;;;15.50;56.60;;;;;;2355618;53;21369;-67
2022/03/18 10:19:45;;;;;;;;;;;;;;;;;;;;;
2022/03/18 10:22:38;;;;;;;10.13;7.12;;;15.80;55.90;;;;;;2399261;53;20977;-66
2022/03/18 10:25:10;;;;;;;13.00;7.47;;;15.90;55.10;;;;;;2416244;53;20993;-67
2022/03/18 10:27:56;;;;;;;12.32;8.00;;;15.90;54.90;;;;;;2347344;53;20936;-67
2022/03/18 10:30:23;;;;;;;12.13;7.20;;;15.90;54.30;;;;;;2352047;53;20964;-68
2022/03/18 10:32:56;;;;;;;12.88;6.80;;;15.90;54.80;;;;;;2384808;53;21468;-68
2022/03/18 10:38:34;;;;;;;11.90;7.53;;;16.00;54.60;;;;;;2347024;53;21127;-66
2022/03/18 10:41:43;;;;;;;12.60;6.90;;;16.10;54.70;;;;;;2347169;53;20956;-67
2022/03/18 10:44:19;;;;;;;10.55;6.18;;;16.20;54.60;;;;;;2363429;53;20984;-65
2022/03/18 10:47:19;;;;;;;;;;;;;;;;;;;;;
2022/03/18 11:13:10;;;;;;;12.20;7.32;;;16.30;54.70;;;;;;2349075;53;20944;-66
2022/03/18 11:44:40;;;;;;;13.90;8.75;;;17.50;52.10;;;;;;2143108;60;21044;-66
2022/03/18 11:54:12;;;;;;;14.95;8.88;;;17.40;51.70;;;;;;2218593;59;21116;-68
2022/03/18 12:43:08;;;;;;;13.60;8.48;;;17.50;51.20;;;;;;2213647;60;21051;-68
2022/03/18 12:45:42;;;;;;;14.65;9.05;;;17.60;51.20;;;;;;2201256;57;21072;-68
2022/03/18 12:48:22;;;;;;;14.20;9.65;;;17.80;49.50;;;;;;2224304;57;20987;-68
2022/03/18 12:51:03;;;;;;;14.90;9.70;;;17.80;49.50;;;;;;2144633;58;21031;-68
2022/03/18 12:54:00;;;;;;;13.45;8.63;;;17.80;49.20;;;;;;2167059;57;21014;-68
2022/03/18 13:01:49;;;;;;;14.75;8.52;;;17.90;49.80;;;;;;2160455;57;21035;-68
2022/03/18 13:07:12;;;;;;;12.35;7.97;;;18.10;50.20;;;;;;2144977;58;21226;-68
2022/03/18 13:09:59;;;;;;;15.98;10.43;;;18.10;49.20;;;;;;2115138;58;21016;-68
2022/03/18 13:12:36;;;;;;;16.48;11.45;;;18.20;48.70;;;;;;2160825;58;21014;-68
2022/03/18 13:15:30;;;;;;;14.32;9.55;;;18.20;48.20;;;;;;2159441;58;21044;-68
2022/03/18 13:18:18;;;;;;;16.15;11.10;;;18.20;48.10;;;;;;2155153;59;21384;-67
2022/03/18 13:20:55;;;;;;;14.55;9.48;;;18.10;48.80;;;;;;2283375;58;20970;-67
2022/03/18 13:23:53;;;;;;;14.25;9.07;;;18.10;48.30;;;;;;2171553;58;22014;-68
2022/03/18 13:26:23;;;;;;;17.70;11.38;;;18.20;48.40;;;;;;2130836;59;20995;-69
2022/03/18 13:28:55;;;;;;;16.73;10.65;;;18.20;48.40;;;;;;2176968;58;21855;-70
2022/03/18 13:34:57;;;;;;;17.33;10.70;;;18.20;48.10;;;;;;2185505;58;21003;-69
2022/03/18 13:38:37;;;;;;;17.23;11.60;;;18.30;47.90;;;;;;2185831;58;21135;-67
2022/03/18 13:44:24;;;;;;;18.10;12.07;;;18.30;47.50;;;;;;2191416;58;21023;-68
2022/03/18 13:47:06;;;;;;;15.85;10.80;;;18.20;47.70;;;;;;2192297;58;21113;-69
2022/03/18 13:49:36;;;;;;;16.67;11.93;;;18.20;47.00;;;;;;2186916;58;21002;-67
2022/03/18 13:52:12;;;;;;;14.93;10.52;;;18.10;47.10;;;;;;2189765;58;21276;-69
2022/03/18 13:55:03;;;;;;;16.65;10.65;;;18.10;47.20;;;;;;2186725;58;21102;-69
2022/03/18 13:57:50;;;;;;;15.85;10.77;;;18.10;46.70;;;;;;2189989;58;21077;-69
2022/03/18 14:01:31;;;;;;;;;;;;;;;;;;;;;
2022/03/18 14:04:01;;;;;;;18.87;12.77;;;18.10;46.60;;;;;;2204091;57;21032;-67
2022/03/18 14:06:55;;;;;;;16.15;11.02;;;18.10;46.60;;;;;;2175752;57;21061;-68
2022/03/18 14:13:11;;;;;;;18.87;12.13;;;18.00;46.20;;;;;;2167607;58;21070;-68
2022/03/18 14:16:00;;;;;;;18.83;12.25;;;17.90;46.00;;;;;;2166213;58;20998;-67
2022/03/18 14:18:59;;;;;;;19.87;12.68;;;17.80;45.70;;;;;;2171577;58;21031;-67
2022/03/18 14:21:53;;;;;;;16.80;11.63;;;17.70;45.20;;;;;;2156366;58;21920;-68
2022/03/18 14:24:24;;;;;;;19.08;12.37;;;17.70;45.50;;;;;;2183864;58;21467;-66
2022/03/18 14:26:53;;;;;;;17.48;11.23;;;17.60;45.70;;;;;;2186644;58;21014;-66
2022/03/18 14:29:31;;;;;;;15.45;11.10;;;17.50;45.70;;;;;;2190734;58;21012;-66
2022/03/18 14:32:11;;;;;;;14.30;9.88;;;17.50;45.70;;;;;;2189904;58;21039;-67
2022/03/18 14:34:50;;;;;;;;;;;;;;;;;;;;;
2022/03/18 14:38:11;;;;;;;;;;;;;;;;;;;;;
2022/03/18 14:40:42;;;;;;;14.95;10.00;;;17.60;46.00;;;;;;2184413;58;21054;-66
2022/03/18 14:44:42;;;;;;;13.90;9.52;;;17.60;46.40;;;;;;2191539;58;21023;-66
2022/03/18 14:47:12;;;;;;;13.68;8.68;;;17.70;45.90;;;;;;2189366;58;21058;-66
2022/03/18 14:50:07;;;;;;;14.87;10.02;;;17.80;46.40;;;;;;2274567;57;21068;-67
2022/03/18 14:52:40;;;;;;;14.80;10.50;;;17.90;45.80;;;;;;2232823;57;21039;-66
2022/03/18 14:58:02;;;;;;;15.98;9.93;;;18.00;45.90;;;;;;2210534;57;21073;-66
2022/03/18 15:00:34;;;;;;;14.55;9.18;;;18.00;45.70;;;;;;2191971;58;21438;-66
2022/03/18 15:03:27;;;;;;;14.60;9.23;;;18.10;45.40;;;;;;2173262;58;21053;-66
2022/03/18 15:06:03;;;;;;;14.43;8.80;;;18.10;45.20;;;;;;2184752;58;20982;-66
2022/03/18 15:08:39;;;;;;;13.00;8.40;;;18.10;45.20;;;;;;2190681;58;21036;-67
2022/03/18 15:11:14;;;;;;;15.20;8.35;;;18.10;45.30;;;;;;2193697;57;21031;-67
2022/03/18 15:21:10;;;;;;;12.45;7.87;;;18.20;44.70;;;;;;2161595;58;21572;-66
2022/03/18 15:50:26;;;;;;;10.35;7.22;;;18.00;44.60;;;;;;2082173;61;21040;-68
2022/03/18 15:53:01;;;;;;;10.48;7.07;;;18.00;44.40;;;;;;2095122;61;21035;-66
2022/03/18 16:03:20;;;;;;;;;;;;;;;;;;;;;
2022/03/18 16:05:51;;;;;;;14.43;7.93;;;17.70;44.70;;;;;;2014075;63;21063;-67
2022/03/18 16:17:59;;;;;;;9.85;7.12;;;17.60;45.00;;;;;;2009917;63;21371;-68
2022/03/18 16:20:26;;;;;;;11.50;7.00;;;17.40;44.90;;;;;;2065349;61;21058;-68
2022/03/18 16:23:01;;;;;;;10.27;6.60;;;17.20;44.70;;;;;;2114479;60;21061;-66
2022/03/18 16:26:27;;;;;;;15.13;7.53;;;17.20;44.80;;;;;;2131513;58;21361;-66
2022/03/18 16:29:34;;;;;;;10.93;7.53;;;17.10;44.80;;;;;;2190356;58;20979;-66
2022/03/18 16:33:06;;;;;;;13.15;7.95;;;17.10;44.80;;;;;;2183471;58;21071;-67
2022/03/18 16:35:46;;;;;;;12.10;7.78;;;17.00;44.70;;;;;;2236264;58;22020;-66
2022/03/18 16:51:12;;;;;;;12.32;8.02;;;16.70;44.50;;;;;;2185293;58;21004;-65
2022/03/18 17:00:30;;;;;;;11.85;7.43;;;16.40;44.30;;;;;;2216060;58;20991;-66
2022/03/18 17:03:07;;;;;;;11.65;7.72;;;16.30;44.30;;;;;;2192078;58;21016;-66
2022/03/18 17:06:23;;;;;;;;;;;;;;;;;;;;;
2022/03/18 17:15:39;;;;;;;10.60;6.82;;;16.10;44.30;;;;;;2213293;57;21006;-66
2022/03/18 17:18:11;;;;;;;12.20;7.15;;;16.00;44.50;;;;;;2219883;57;20992;-68
2022/03/18 17:20:38;;;;;;;12.45;7.72;;;15.80;44.60;;;;;;2169600;58;21036;-67
2022/03/18 17:23:28;;;;;;;11.93;7.35;;;15.70;44.60;;;;;;2182765;58;21046;-66
2022/03/18 17:25:58;;;;;;;12.18;7.78;;;15.60;44.70;;;;;;2198538;57;21028;-65
2022/03/18 17:29:38;;;;;;;;;;;;;;;;;;;;;
2022/03/18 17:41:01;;;;;;;11.18;7.30;;;15.20;44.70;;;;;;2186069;58;20988;-66
2022/03/18 17:43:54;;;;;;;10.80;7.10;;;15.10;44.70;;;;;;2181414;58;21030;-67
2022/03/18 17:46:22;;;;;;;12.00;7.40;;;15.00;44.80;;;;;;2195814;57;21081;-65
2022/03/18 17:49:34;;;;;;;12.07;8.38;;;14.90;44.90;;;;;;2196640;57;21142;-67
2022/03/18 17:52:17;;;;;;;12.70;8.02;;;14.90;45.00;;;;;;2195265;58;21079;-67
2022/03/18 17:54:52;;;;;;;15.93;9.35;;;14.80;45.10;;;;;;2192100;58;21031;-65
2022/03/18 17:57:47;;;;;;;14.27;8.80;;;14.70;45.10;;;;;;2188762;58;21017;-66
2022/03/18 18:03:31;;;;;;;14.32;9.50;;;14.60;45.10;;;;;;2283025;57;21063;-65
2022/03/18 18:06:45;;;;;;;11.95;7.25;;;14.50;45.20;;;;;;2240000;57;20969;-66
2022/03/18 18:09:57;;;;;;;11.98;8.00;;;14.40;45.30;;;;;;2179823;61;20983;-66
2022/03/18 18:12:52;;;;;;;13.18;8.98;;;14.40;45.40;;;;;;2181244;58;21848;-66
2022/03/18 18:16:56;;;;;;;14.32;9.00;;;14.30;45.40;;;;;;2194587;57;21022;-66
2022/03/18 18:23:36;;;;;;;12.65;8.52;;;14.20;45.60;;;;;;2176577;58;21066;-67
2022/03/18 18:32:33;;;;;;;14.32;8.68;;;14.10;45.70;;;;;;2218539;58;21000;-67
2022/03/18 18:38:19;;;;;;;16.08;9.95;;;14.00;45.80;;;;;;2185125;58;21885;-66
2022/03/18 18:56:54;;;;;;;12.65;8.43;;;13.90;46.00;;;;;;2213545;57;21019;-67
2022/03/18 19:00:15;;;;;;;16.17;11.23;;;13.70;46.10;;;;;;2203537;57;21625;-69
2022/03/18 19:09:55;;;;;;;15.18;9.10;;;13.60;46.50;;;;;;2197637;59;21045;-68
2022/03/18 19:15:27;;;;;;;15.77;10.43;;;13.70;46.60;;;;;;2202475;57;21966;-67
2022/03/18 19:18:03;;;;;;;16.40;11.00;;;13.70;46.60;;;;;;2185752;58;21929;-68
2022/03/18 21:19:19;;;;;;;15.35;9.45;;;13.40;46.60;;;;;;2322683;55;21028;-65
2022/03/18 22:55:20;;;;;;;17.23;11.35;;;13.10;46.40;;;;;;2086595;62;21039;-65
2022/03/18 23:08:57;;;;;;;14.35;9.90;;;13.10;46.30;;;;;;2261249;54;22331;-66
2022/03/18 23:15:06;;;;;;;21.10;12.77;;;12.70;46.10;;;;;;2270220;55;21127;-64
2022/03/18 23:18:04;;;;;;;17.75;11.48;;;12.70;46.10;;;;;;2265611;54;21020;-66
2022/03/18 23:20:43;;;;;;;19.98;12.60;;;12.60;46.10;;;;;;2277108;54;21392;-65
2022/03/18 23:23:15;;;;;;;22.02;13.77;;;12.60;46.00;;;;;;2274960;54;21017;-65
2022/03/18 23:25:43;;;;;;;19.90;12.95;;;12.60;46.10;;;;;;2281736;54;21049;-66
2022/03/18 23:28:14;;;;;;;18.17;11.82;;;12.60;46.10;;;;;;2282059;54;21025;-63
2022/03/18 23:31:03;;;;;;;21.20;13.23;;;12.60;46.20;;;;;;2302486;54;21088;-66
2022/03/18 23:33:34;;;;;;;16.60;11.27;;;12.50;46.00;;;;;;2257177;59;21072;-65
2022/03/18 23:36:04;;;;;;;21.10;13.13;;;12.50;46.10;;;;;;2257158;59;21144;-64
2022/03/18 23:38:34;;;;;;;20.52;12.70;;;12.50;46.00;;;;;;2264774;54;21042;-64
2022/03/18 23:44:34;;;;;;;17.77;11.88;;;12.50;45.90;;;;;;2262849;55;20981;-66
2022/03/18 23:47:08;;;;;;;20.62;12.98;;;12.40;45.80;;;;;;2261074;55;21032;-66
2022/03/18 23:49:35;;;;;;;21.50;13.77;;;12.40;45.90;;;;;;2262637;55;21008;-64
2022/03/18 23:52:08;;;;;;;19.13;12.60;;;12.30;45.80;;;;;;2295080;55;21069;-65
2022/03/18 23:55:02;;;;;;;20.65;13.07;;;12.30;45.80;;;;;;2260895;54;21580;-66
2022/03/18 23:57:33;;;;;;;19.60;12.55;;;12.30;45.70;;;;;;2268622;55;21066;-67
